Gaylord, MI

9:32 PM EST on December 28, 2014 (GMT -0500)
Woodcrest Drive | Change Station
CLOSE
Current Station
Personal Weather Station
Location: Gaylord, MI
Elevation: 1319 ft
Nearby Weather Stations

Elev 1319 ft 45.00 °N, 84.65 °W | Updated 34 seconds ago

Light Snow
Light Snow
21.1 °F
Feels Like 21 °F
N
1.0
Wind Variable Wind from NNW
Gusts 5.0 mph

Today
High -- | Low -- °F
--% Chance of Precip.
Yesterday
High -- | Low -- °F
Precip. -- in
8:16 AM 5:04 PM
First Quarter, 54% visible
Pressure 30.11 in
Visibility 1.0 miles
Clouds Scattered Clouds 1200 ft
Mostly Cloudy 2400 ft
Overcast 4300 ft
Windchill 21 °F
Dew Point 16 °F
Humidity 79%
Rainfall 0.00 in
Snow Depth Not available.
UV 0.0 out of 12
Pollen .10 out of 12
Air Quality Not available.
Flu Activity Not available.
SPECI KGLR 290225Z AUTO VRB04KT 1SM -SN SCT012 BKN024 OVC043 M06/M09 A3011 RMK AO2 SNB14 P0000 T10611094

More Conditions Fewer Conditions

Pressure 30.11 in
Visibility 1.0 miles
Clouds Scattered Clouds 1200 ft
Mostly Cloudy 2400 ft
Overcast 4300 ft
Windchill 21 °F
Dew Point 16 °F
Humidity 79%
Rainfall 0.00 in
Snow Depth Not available.
UV 0.0 out of 12
Pollen .10 out of 12
Air Quality Not available.
Flu Activity Not available.
SPECI KGLR 290225Z AUTO VRB04KT 1SM -SN SCT012 BKN024 OVC043 M06/M09 A3011 RMK AO2 SNB14 P0000 T10611094

More Conditions Fewer Conditions

Nowcast | as of 9:00 PM EST on December 28, 2014

At 10 PM...mostly cloudy. Scattered snow showers. Temperature 19. Northwest winds 8 mph. At 12 am...mostly cloudy. Scattered snow showers. Temperature 18. Northwest winds 7 mph. At 2 am...mostly cloudy. Scattered snow showers. Temperature 16. Northwest winds 7 mph. At 4 am...mostly cloudy. Scattered snow showers. Temperature 15. Northwest winds 6 mph.

×

10-Day Weather Forecast

Almanac

Astronomy

Dec. 28, 2014 Rise Set
Actual Time
Civil Twilight
Nautical Twilight
Astronomical Twilight
Moon
Length of Visible Light
Length of Day
Tomorrow will be .
, % of the Moon is Illuminated

Today's Extremes

State Highs State Lows

Community

WunderPhotos

Upload Photos

1,781,503 photos uploaded!

WunderBlogs® & News

Nearby

Air Quality

  Air Quality AQ Index Pollutant
Not available.

Snow Depth

Station Depth Elevation

Earthquake Activity

City Distance Mag. Time & Date
Minimum magnitude displayed is 2.5.

Coastal Water Temperatures

Place Temperature

Nearby Weather Stations